createdAt,value
2018-07-30T00:05:37.496Z,80.90
2018-07-30T00:11:02.234Z,81.60
2018-07-30T00:13:30.684Z,81.60
2018-07-30T00:19:04.221Z,81.90
2018-07-30T00:21:32.698Z,82.10
2018-07-30T00:24:01.086Z,82.10
2018-07-30T00:26:29.605Z,82.10
2018-07-30T00:28:58.001Z,82.00
2018-07-30T00:31:26.473Z,82.00
2018-07-30T00:33:54.881Z,82.00
2018-07-30T00:36:23.329Z,82.10
2018-07-30T00:38:51.951Z,82.20
2018-07-30T00:41:20.402Z,82.10
2018-07-30T00:43:48.785Z,82.30
2018-07-30T00:46:17.224Z,82.20
2018-07-30T00:51:15.261Z,82.20
2018-07-30T00:53:45.748Z,82.30
2018-07-30T00:56:14.164Z,82.30
2018-07-30T00:58:45.492Z,82.40
2018-07-30T01:01:14.432Z,82.30
2018-07-30T01:03:44.988Z,82.40
2018-07-30T01:06:13.385Z,82.30
2018-07-30T01:11:12.347Z,82.40
2018-07-30T01:13:40.781Z,82.60
2018-07-30T01:16:09.220Z,82.60
2018-07-30T01:21:07.648Z,82.90
2018-07-30T01:23:36.597Z,82.80
2018-07-30T01:26:10.669Z,83.20
2018-07-30T01:28:39.072Z,82.80
2018-07-30T01:31:07.801Z,82.90
2018-07-30T01:33:36.771Z,83.00
2018-07-30T01:36:05.364Z,83.00
2018-07-30T01:38:34.338Z,83.10
2018-07-30T01:41:02.763Z,83.10
2018-07-30T01:43:32.580Z,83.10
2018-07-30T01:46:01.126Z,83.00
2018-07-30T01:48:29.713Z,83.10
2018-07-30T01:50:58.275Z,83.00
2018-07-30T01:53:27.085Z,83.20
2018-07-30T01:55:55.589Z,83.30
2018-07-30T01:58:24.064Z,83.40
2018-07-30T02:00:52.716Z,83.20
2018-07-30T02:03:21.324Z,83.20
2018-07-30T02:05:50.046Z,83.60
2018-07-30T02:08:18.861Z,83.30
2018-07-30T02:10:47.496Z,83.40
2018-07-30T02:13:15.875Z,83.30
2018-07-30T02:15:44.337Z,83.40
2018-07-30T02:18:12.897Z,83.40
2018-07-30T02:20:41.317Z,83.30
2018-07-30T02:23:10.081Z,83.40
2018-07-30T02:25:38.456Z,83.60
2018-07-30T02:28:06.921Z,83.50
2018-07-30T02:30:35.749Z,83.60
2018-07-30T02:35:33.961Z,83.50
2018-07-30T02:38:02.676Z,83.40
2018-07-30T02:40:31.118Z,83.40
2018-07-30T02:42:59.887Z,83.50
2018-07-30T02:45:28.574Z,84.30
2018-07-30T02:47:57.740Z,83.60
2018-07-30T02:50:26.427Z,83.60
2018-07-30T02:52:54.805Z,83.80
2018-07-30T02:55:23.696Z,83.80
2018-07-30T02:57:52.508Z,83.80
2018-07-30T03:00:21.729Z,83.70
2018-07-30T03:02:50.129Z,83.70
2018-07-30T03:05:19.247Z,83.80
2018-07-30T03:07:47.733Z,83.90
2018-07-30T03:10:16.581Z,84.10
2018-07-30T03:12:45.192Z,84.20
2018-07-30T03:15:14.071Z,84.30
2018-07-30T03:17:42.981Z,84.80
2018-07-30T03:20:11.769Z,84.50
2018-07-30T03:22:40.204Z,84.60
2018-07-30T03:25:08.733Z,84.70
2018-07-30T03:27:37.193Z,85.00
2018-07-30T03:30:07.300Z,85.10
2018-07-30T03:32:36.029Z,85.20
2018-07-30T03:37:33.960Z,85.60
2018-07-30T03:40:02.710Z,85.60
2018-07-30T03:42:31.375Z,85.60
2018-07-30T03:45:00.061Z,85.60
2018-07-30T03:47:28.512Z,85.70
2018-07-30T03:49:57.200Z,86.70
2018-07-30T03:52:25.616Z,86.00
2018-07-30T03:54:54.028Z,86.00
2018-07-30T03:57:22.758Z,86.10
2018-07-30T03:59:52.289Z,86.30
2018-07-30T04:02:21.213Z,86.20
2018-07-30T04:04:50.205Z,86.20
2018-07-30T04:07:18.664Z,86.10
2018-07-30T04:09:47.014Z,86.10
2018-07-30T04:12:15.432Z,86.10
2018-07-30T04:14:43.865Z,86.20
2018-07-30T04:17:12.337Z,86.20
2018-07-30T04:19:40.834Z,86.30
2018-07-30T04:22:09.489Z,86.40
2018-07-30T04:24:37.911Z,86.30
2018-07-30T04:27:06.762Z,86.30
2018-07-30T04:29:35.145Z,86.40
2018-07-30T04:32:03.556Z,86.60
2018-07-30T04:34:31.987Z,87.30
2018-07-30T04:37:00.395Z,87.60
2018-07-30T04:39:28.853Z,87.60
2018-07-30T04:41:57.555Z,88.00
2018-07-30T04:44:26.309Z,87.70
2018-07-30T04:46:54.679Z,87.80
2018-07-30T04:49:23.571Z,87.90
2018-07-30T04:51:51.953Z,87.60
2018-07-30T04:54:20.389Z,87.70
2018-07-30T04:56:49.243Z,88.00
2018-07-30T04:59:17.680Z,87.80
2018-07-30T05:04:14.666Z,87.80
2018-07-30T05:06:43.324Z,88.00
2018-07-30T05:11:40.211Z,87.80
2018-07-30T05:14:09.597Z,87.80
2018-07-30T05:16:38.224Z,88.00
2018-07-30T05:19:06.660Z,88.50
2018-07-30T05:21:35.049Z,88.30
2018-07-30T05:24:03.724Z,88.40
2018-07-30T05:26:32.116Z,88.70
2018-07-30T05:29:00.588Z,88.90
2018-07-30T05:31:28.997Z,89.10
2018-07-30T05:33:57.705Z,89.20
2018-07-30T05:36:26.349Z,89.10
2018-07-30T05:38:54.793Z,89.40
2018-07-30T05:41:23.211Z,90.00
2018-07-30T05:43:52.091Z,90.20
2018-07-30T05:46:20.974Z,90.30
2018-07-30T05:48:49.363Z,90.60
2018-07-30T05:51:17.787Z,90.40
2018-07-30T05:53:46.736Z,90.70
2018-07-30T05:56:15.627Z,90.90
2018-07-30T05:58:46.017Z,90.80
2018-07-30T06:04:18.732Z,91.00
2018-07-30T06:06:47.411Z,91.20
2018-07-30T06:10:15.157Z,91.30
2018-07-30T06:19:08.693Z,91.60
2018-07-30T06:21:37.190Z,91.80
2018-07-30T06:24:05.717Z,91.90
2018-07-30T06:26:34.600Z,91.90
2018-07-30T06:29:03.009Z,91.90
2018-07-30T06:31:31.381Z,92.10
2018-07-30T06:33:59.766Z,91.90
2018-07-30T06:36:28.186Z,91.90
2018-07-30T06:38:56.901Z,92.00
2018-07-30T06:41:25.296Z,92.10
2018-07-30T06:43:54.257Z,91.90
2018-07-30T06:46:22.693Z,91.70
2018-07-30T06:48:51.874Z,91.80
2018-07-30T06:51:20.401Z,92.00
2018-07-30T06:53:48.805Z,92.10
2018-07-30T06:56:17.244Z,92.20
2018-07-30T06:58:47.825Z,92.10
2018-07-30T07:01:16.470Z,92.20
2018-07-30T07:03:47.304Z,92.10
2018-07-30T07:06:15.724Z,92.20
2018-07-30T07:08:46.266Z,92.30
2018-07-30T07:11:21.434Z,92.20
2018-07-30T07:13:49.840Z,92.20
2018-07-30T07:16:18.224Z,91.90
2018-07-30T07:18:47.602Z,91.90
2018-07-30T07:21:16.089Z,92.00
2018-07-30T07:23:46.676Z,91.90
2018-07-30T07:26:15.104Z,91.70
2018-07-30T07:28:45.677Z,91.70
2018-07-30T07:31:14.071Z,91.70
2018-07-30T07:33:42.764Z,91.70
2018-07-30T07:36:11.230Z,91.30
2018-07-30T07:38:39.977Z,91.50
2018-07-30T07:41:09.217Z,91.40
2018-07-30T07:43:37.715Z,91.40
2018-07-30T07:46:06.881Z,91.40
2018-07-30T07:48:35.439Z,91.00
2018-07-30T07:51:04.364Z,90.90
2018-07-30T07:53:32.869Z,90.90
2018-07-30T07:56:01.434Z,90.80
2018-07-30T07:58:30.061Z,90.90
2018-07-30T08:00:58.498Z,91.00
2018-07-30T08:03:26.996Z,90.40
2018-07-30T08:05:55.448Z,90.20
2018-07-30T08:08:23.873Z,90.40
2018-07-30T08:10:52.418Z,90.00
2018-07-30T08:13:21.167Z,89.80
2018-07-30T08:15:49.585Z,89.60
2018-07-30T08:18:18.103Z,89.00
2018-07-30T08:20:46.514Z,89.20
2018-07-30T08:23:15.308Z,88.80
2018-07-30T08:25:44.113Z,88.70
2018-07-30T08:28:12.860Z,88.00
2018-07-30T08:30:41.241Z,87.50
2018-07-30T08:33:09.768Z,87.60
2018-07-30T08:35:38.175Z,86.50
2018-07-30T08:38:06.633Z,85.20
2018-07-30T08:40:35.308Z,85.80
2018-07-30T08:43:04.504Z,85.50
2018-07-30T08:45:33.452Z,85.80
2018-07-30T08:48:01.917Z,85.60
2018-07-30T08:50:30.496Z,85.90
2018-07-30T08:52:58.909Z,85.00
2018-07-30T08:55:27.364Z,84.70
2018-07-30T08:57:56.036Z,84.60
2018-07-30T09:00:24.485Z,83.20
2018-07-30T09:02:52.856Z,82.80
2018-07-30T09:05:21.321Z,82.00
2018-07-30T09:07:49.893Z,82.00
2018-07-30T09:10:18.644Z,82.20
2018-07-30T09:12:47.686Z,82.10
2018-07-30T09:15:23.536Z,81.70
2018-07-30T09:17:51.977Z,81.50
2018-07-30T09:20:20.681Z,81.80
2018-07-30T09:22:49.457Z,82.90
2018-07-30T09:25:17.905Z,81.40
2018-07-30T09:27:46.300Z,81.80
2018-07-30T09:30:14.968Z,81.60
2018-07-30T09:32:43.431Z,81.80
2018-07-30T09:35:12.237Z,80.80
2018-07-30T09:37:41.344Z,80.60
2018-07-30T09:40:09.764Z,80.40
2018-07-30T09:42:38.661Z,80.30
2018-07-30T09:45:07.174Z,80.30
2018-07-30T09:47:35.986Z,78.70
2018-07-30T09:50:04.726Z,77.20
2018-07-30T09:52:33.468Z,79.20
2018-07-30T09:55:01.958Z,78.40
2018-07-30T09:59:59.073Z,78.20
2018-07-30T10:02:27.521Z,78.10
2018-07-30T10:04:55.976Z,77.10
2018-07-30T10:07:24.496Z,77.10
2018-07-30T10:09:53.343Z,75.20
2018-07-30T10:12:21.736Z,74.10
2018-07-30T10:15:32.600Z,74.10
2018-07-30T10:18:01.359Z,74.30
2018-07-30T10:20:30.207Z,74.20
2018-07-30T10:25:27.048Z,73.00
2018-07-30T10:27:55.468Z,71.50
2018-07-30T10:30:24.034Z,71.20
2018-07-30T10:32:52.464Z,71.40
2018-07-30T10:35:20.956Z,70.60
2018-07-30T10:37:49.757Z,70.20
2018-07-30T10:40:18.582Z,69.50
2018-07-30T10:42:47.073Z,69.10
2018-07-30T10:45:15.851Z,68.60
2018-07-30T10:47:44.274Z,68.20
2018-07-30T10:50:12.696Z,69.10
2018-07-30T10:52:41.109Z,69.60
2018-07-30T10:55:09.523Z,68.30
2018-07-30T10:57:38.052Z,68.30
2018-07-30T11:00:06.616Z,68.20
2018-07-30T11:02:35.151Z,65.20
2018-07-30T11:07:32.213Z,61.20
2018-07-30T11:10:00.597Z,62.30
2018-07-30T11:12:29.032Z,62.40
2018-07-30T11:15:44.517Z,62.90
2018-07-30T11:18:13.092Z,63.20
2018-07-30T11:20:42.087Z,63.10
2018-07-30T11:23:10.834Z,63.80
2018-07-30T11:25:39.238Z,64.30
2018-07-30T11:28:08.297Z,65.00
2018-07-30T11:30:37.005Z,66.60
2018-07-30T11:33:05.720Z,66.30
2018-07-30T11:35:34.618Z,66.50
2018-07-30T11:38:03.023Z,66.50
2018-07-30T11:40:31.446Z,66.50
2018-07-30T11:42:59.935Z,65.60
2018-07-30T11:45:28.625Z,65.40
2018-07-30T11:47:57.455Z,65.00
2018-07-30T11:50:26.173Z,65.40
2018-07-30T11:52:54.926Z,65.60
2018-07-30T11:55:23.465Z,63.20
2018-07-30T11:57:51.812Z,62.00
2018-07-30T12:00:20.527Z,61.00
2018-07-30T12:02:48.958Z,61.80
2018-07-30T12:05:17.308Z,61.30
2018-07-30T12:07:45.740Z,61.70
2018-07-30T12:11:03.798Z,61.90
2018-07-30T12:13:33.496Z,61.20
2018-07-30T12:19:46.457Z,61.20
2018-07-30T12:26:20.436Z,62.80
2018-07-30T12:31:20.274Z,60.70
2018-07-30T12:33:48.861Z,59.70
2018-07-30T12:38:47.518Z,59.70
2018-07-30T12:41:15.996Z,60.80
2018-07-30T12:43:46.368Z,59.30
2018-07-30T12:46:14.767Z,58.20
2018-07-30T12:48:43.545Z,57.50
2018-07-30T12:53:40.928Z,57.30
2018-07-30T12:56:09.628Z,57.70
2018-07-30T12:58:38.120Z,57.10
2018-07-30T13:01:06.557Z,56.70
2018-07-30T13:03:35.017Z,56.90
2018-07-30T13:06:03.445Z,56.30
2018-07-30T13:08:32.012Z,55.80
2018-07-30T13:11:00.842Z,55.70
2018-07-30T13:16:16.196Z,53.90
2018-07-30T13:18:46.165Z,53.40
2018-07-30T13:21:14.830Z,55.20
2018-07-30T13:23:43.279Z,55.30
2018-07-30T13:26:11.692Z,55.10
2018-07-30T13:28:40.265Z,54.50
2018-07-30T13:31:08.669Z,53.80
2018-07-30T13:33:37.137Z,54.00
2018-07-30T13:36:05.575Z,54.30
2018-07-30T13:38:34.053Z,54.30
2018-07-30T13:41:02.464Z,53.10
2018-07-30T13:43:31.238Z,53.20
2018-07-30T13:45:59.656Z,53.80
2018-07-30T13:48:28.177Z,53.50
2018-07-30T13:50:56.665Z,52.40
2018-07-30T13:53:25.055Z,51.50
2018-07-30T13:55:53.513Z,51.10
2018-07-30T13:58:21.964Z,51.30
2018-07-30T14:00:50.422Z,52.60
2018-07-30T14:03:18.837Z,52.70
2018-07-30T14:05:47.208Z,52.80
2018-07-30T14:08:15.641Z,52.90
2018-07-30T14:10:44.061Z,52.70
2018-07-30T14:13:12.510Z,52.90
2018-07-30T14:16:23.187Z,53.00
2018-07-30T14:18:51.669Z,53.80
2018-07-30T14:21:20.183Z,54.60
2018-07-30T14:23:50.001Z,55.00
2018-07-30T14:26:18.432Z,55.00
2018-07-30T14:28:48.045Z,54.50
2018-07-30T14:31:16.517Z,55.10
2018-07-30T14:33:46.264Z,55.90
2018-07-30T14:36:14.790Z,56.80
2018-07-30T14:38:43.198Z,57.30
2018-07-30T14:41:11.618Z,57.80
2018-07-30T14:43:40.029Z,58.40
2018-07-30T14:46:08.538Z,58.40
2018-07-30T14:48:36.924Z,58.50
2018-07-30T14:51:05.346Z,58.90
2018-07-30T14:53:34.085Z,59.10
2018-07-30T14:56:02.890Z,59.30
2018-07-30T14:58:31.333Z,59.10
2018-07-30T15:00:59.754Z,58.60
2018-07-30T15:03:28.264Z,58.40
2018-07-30T15:05:56.705Z,57.90
2018-07-30T15:08:25.136Z,57.90
2018-07-30T15:10:53.952Z,58.30
2018-07-30T15:13:22.660Z,58.60
2018-07-30T15:16:35.851Z,58.50
2018-07-30T15:19:04.687Z,58.50
2018-07-30T15:21:33.451Z,58.70
2018-07-30T15:24:02.009Z,58.80
2018-07-30T15:26:30.732Z,59.00
2018-07-30T15:28:59.623Z,59.00
2018-07-30T15:31:28.056Z,59.40
2018-07-30T15:33:56.929Z,60.00
2018-07-30T15:36:25.790Z,61.30
2018-07-30T15:38:54.366Z,60.60
2018-07-30T15:41:23.441Z,60.60
2018-07-30T15:43:51.996Z,61.70
2018-07-30T15:46:20.425Z,62.20
2018-07-30T15:48:49.945Z,61.80
2018-07-30T15:51:18.385Z,61.30
2018-07-30T15:53:47.997Z,61.70
2018-07-30T15:56:17.210Z,62.30
2018-07-30T15:58:46.780Z,61.90
2018-07-30T16:01:15.196Z,62.70
2018-07-30T16:03:43.951Z,62.80
2018-07-30T16:06:12.493Z,63.10
2018-07-30T16:08:41.371Z,63.10
2018-07-30T16:11:17.461Z,63.10
2018-07-30T16:16:43.728Z,63.20
2018-07-30T16:19:12.118Z,63.80
2018-07-30T16:21:40.816Z,64.10
2018-07-30T16:24:09.269Z,63.90
2018-07-30T16:26:37.923Z,63.80
2018-07-30T16:29:06.524Z,63.30
2018-07-30T16:31:35.290Z,63.00
2018-07-30T16:34:03.745Z,63.50
2018-07-30T16:36:32.081Z,63.90
2018-07-30T16:39:00.869Z,63.90
2018-07-30T16:41:29.835Z,63.40
2018-07-30T16:43:58.292Z,63.50
2018-07-30T16:46:26.776Z,63.00
2018-07-30T16:48:55.184Z,63.90
2018-07-30T16:51:23.815Z,64.10
2018-07-30T16:53:52.811Z,64.00
2018-07-30T16:56:21.420Z,64.00
2018-07-30T16:58:49.830Z,63.70
2018-07-30T17:01:18.774Z,64.00
2018-07-30T17:03:48.245Z,63.90
2018-07-30T17:06:17.097Z,64.00
2018-07-30T17:08:45.665Z,64.40
2018-07-30T17:11:17.179Z,64.90
2018-07-30T17:13:47.339Z,65.10
2018-07-30T17:16:54.159Z,65.60
2018-07-30T17:19:22.632Z,65.90
2018-07-30T17:21:51.308Z,66.30
2018-07-30T17:24:19.735Z,66.50
2018-07-30T17:26:48.148Z,66.60
2018-07-30T17:29:16.573Z,66.90
2018-07-30T17:31:45.056Z,67.00
2018-07-30T17:34:13.809Z,67.30
2018-07-30T17:36:42.545Z,67.40
2018-07-30T17:39:11.749Z,67.80
2018-07-30T17:41:40.560Z,67.80
2018-07-30T17:44:09.511Z,68.00
2018-07-30T17:46:37.934Z,68.20
2018-07-30T17:49:06.373Z,68.50
2018-07-30T17:51:34.917Z,68.90
2018-07-30T17:54:03.691Z,68.90
2018-07-30T17:56:32.157Z,69.00
2018-07-30T17:59:00.700Z,69.10
2018-07-30T18:01:29.164Z,69.10
2018-07-30T18:03:58.046Z,69.10
2018-07-30T18:06:26.511Z,69.60
2018-07-30T18:08:55.177Z,69.50
2018-07-30T18:11:24.889Z,69.50
2018-07-30T18:13:53.257Z,69.60
2018-07-30T18:19:25.957Z,69.90
2018-07-30T18:21:54.485Z,70.00
2018-07-30T18:24:22.899Z,70.40
2018-07-30T18:26:51.412Z,69.20
2018-07-30T18:29:19.917Z,68.90
2018-07-30T18:31:48.497Z,69.60
2018-07-30T18:34:17.005Z,69.50
2018-07-30T18:36:45.392Z,69.80
2018-07-30T18:39:13.892Z,68.70
2018-07-30T18:41:42.781Z,70.00
2018-07-30T18:44:20.568Z,70.30
2018-07-30T18:46:50.445Z,70.40
2018-07-30T18:49:19.250Z,69.30
2018-07-30T18:51:47.998Z,69.10
2018-07-30T18:54:16.972Z,68.70
2018-07-30T18:56:45.762Z,67.70
2018-07-30T18:59:14.329Z,67.60
2018-07-30T19:01:43.344Z,67.60
2018-07-30T19:04:12.184Z,67.50
2018-07-30T19:06:41.137Z,67.20
2018-07-30T19:09:10.619Z,66.60
2018-07-30T19:11:39.592Z,66.60
2018-07-30T19:14:08.897Z,66.30
2018-07-30T19:17:17.513Z,66.90
2018-07-30T19:19:46.641Z,67.10
2018-07-30T19:22:15.837Z,66.90
2018-07-30T19:24:45.009Z,67.50
2018-07-30T19:27:14.109Z,69.70
2018-07-30T19:29:43.113Z,67.80
2018-07-30T19:32:12.185Z,68.60
2018-07-30T19:34:41.020Z,68.10
2018-07-30T19:37:10.003Z,67.60
2018-07-30T19:42:07.393Z,65.90
2018-07-30T19:44:36.023Z,66.00
2018-07-30T19:47:04.824Z,66.50
2018-07-30T19:49:33.912Z,66.90
2018-07-30T19:52:03.037Z,66.30
2018-07-30T19:54:32.036Z,66.00
2018-07-30T19:57:01.191Z,66.00
2018-07-30T19:59:30.372Z,66.60
2018-07-30T20:01:59.733Z,66.70
2018-07-30T20:04:29.448Z,66.00
2018-07-30T20:06:58.618Z,66.70
2018-07-30T20:09:27.745Z,66.90
2018-07-30T20:11:56.757Z,66.40
2018-07-30T20:15:11.962Z,66.10
2018-07-30T20:17:41.709Z,65.40
2018-07-30T20:20:14.576Z,65.00
2018-07-30T20:22:43.817Z,65.30
2018-07-30T20:25:14.911Z,64.60
2018-07-30T20:28:29.356Z,64.50
2018-07-30T20:30:58.501Z,64.00
2018-07-30T20:33:27.680Z,64.30
2018-07-30T20:35:56.351Z,64.10
2018-07-30T20:38:24.944Z,64.00
2018-07-30T20:40:53.442Z,64.70
2018-07-30T20:43:21.928Z,64.70
2018-07-30T20:45:50.454Z,64.60
2018-07-30T20:48:19.137Z,64.40
2018-07-30T20:50:47.645Z,63.70
2018-07-30T20:53:20.042Z,64.10
2018-07-30T20:55:53.644Z,62.50
2018-07-30T20:58:26.639Z,61.00
2018-07-30T21:00:59.447Z,61.40
2018-07-30T21:03:33.231Z,61.70
2018-07-30T21:06:06.223Z,62.00
2018-07-30T21:08:34.876Z,62.30
2018-07-30T21:11:03.365Z,61.70
2018-07-30T21:13:32.021Z,62.10
2018-07-30T21:19:21.815Z,61.10
2018-07-30T21:21:50.232Z,61.10
2018-07-30T21:24:19.064Z,61.20
2018-07-30T21:26:47.452Z,61.60
2018-07-30T21:29:15.873Z,61.70
2018-07-30T21:31:44.375Z,61.80
2018-07-30T21:34:12.819Z,62.10
2018-07-30T21:36:41.321Z,62.10
2018-07-30T21:39:12.037Z,62.30
2018-07-30T21:41:41.228Z,62.40
2018-07-30T21:44:10.806Z,62.50
2018-07-30T21:46:40.904Z,62.70
2018-07-30T21:49:09.816Z,62.90
2018-07-30T21:51:38.654Z,63.10
2018-07-30T21:54:07.077Z,63.10
2018-07-30T21:56:35.535Z,63.20
2018-07-30T21:59:03.957Z,63.30
2018-07-30T22:01:32.617Z,63.40
2018-07-30T22:04:01.379Z,63.60
2018-07-30T22:06:30.141Z,64.30
2018-07-30T22:08:59.270Z,63.50
2018-07-30T22:11:27.958Z,63.70
2018-07-30T22:13:56.392Z,63.90
2018-07-30T22:16:24.796Z,64.10
2018-07-30T22:18:53.573Z,64.10
2018-07-30T22:21:21.961Z,64.40
2018-07-30T22:23:51.973Z,64.50
2018-07-30T22:26:20.373Z,64.50
2018-07-30T22:28:50.352Z,64.60
2018-07-30T22:31:18.895Z,64.70
2018-07-30T22:33:47.302Z,64.80
2018-07-30T22:36:15.763Z,64.90
2018-07-30T22:38:44.156Z,64.70
2018-07-30T22:41:12.800Z,65.00
2018-07-30T22:43:41.521Z,65.00
2018-07-30T22:46:10.138Z,65.80
2018-07-30T22:48:38.569Z,65.00
2018-07-30T22:53:35.557Z,65.00
2018-07-30T22:56:03.969Z,65.00
2018-07-30T22:58:32.375Z,65.10
2018-07-30T23:01:00.769Z,65.20
2018-07-30T23:03:29.193Z,65.00
2018-07-30T23:05:57.588Z,65.10
2018-07-30T23:08:25.987Z,65.20
2018-07-30T23:10:54.412Z,65.30
2018-07-30T23:13:22.816Z,65.10
2018-07-30T23:15:51.195Z,65.40
2018-07-30T23:18:19.946Z,65.40
2018-07-30T23:20:48.334Z,65.60
2018-07-30T23:23:16.683Z,65.90
2018-07-30T23:25:45.432Z,65.90
2018-07-30T23:28:13.972Z,65.90
2018-07-30T23:30:42.381Z,66.10
2018-07-30T23:33:10.861Z,65.90
2018-07-30T23:35:39.300Z,65.70
2018-07-30T23:38:07.667Z,65.60
2018-07-30T23:40:36.060Z,65.60
2018-07-30T23:43:04.514Z,65.60
2018-07-30T23:45:33.195Z,65.50
2018-07-30T23:48:03.747Z,65.50
2018-07-30T23:50:32.164Z,65.50
2018-07-30T23:53:00.721Z,66.20
2018-07-30T23:55:29.108Z,65.30
2018-07-30T23:57:57.836Z,65.30
